Terminal Aerodrome Forecast
Issued by NWS

Home | Current Version | Previous Version | Text Only | Print | Product List | Glossary On
Versions: 1 2 3 4 5 6 7 8 9 10 11 12 13
000
FTUS44 KEPZ 250523
TAFTCS
TAF
KTCS 250523Z 2506/2606 28009KT P6SM SCT250
     FM251600 21012G22KT P6SM SCT250
     FM252300 24020G30KT P6SM SCT250
     FM260300 26010KT P6SM SCT250=

USA.gov is the U.S. government's official web portal to all federal, state and local government web resources and services.